sensor_id;sensor_type;location;lat;lon;timestamp;P1;durP1;ratioP1;P2;durP2;ratioP2
4409;SDS011;2218;51.408;7.208;2023-05-10T00:00:46;0.70;;;0.60;;
4409;SDS011;2218;51.408;7.208;2023-05-10T00:03:13;0.70;;;0.60;;
4409;SDS011;2218;51.408;7.208;2023-05-10T00:05:41;0.70;;;0.60;;
4409;SDS011;2218;51.408;7.208;2023-05-10T00:08:08;0.80;;;0.80;;
4409;SDS011;2218;51.408;7.208;2023-05-10T00:10:35;0.70;;;0.70;;
4409;SDS011;2218;51.408;7.208;2023-05-10T00:13:02;0.80;;;0.70;;
4409;SDS011;2218;51.408;7.208;2023-05-10T00:15:29;0.80;;;0.77;;
4409;SDS011;2218;51.408;7.208;2023-05-10T00:17:56;0.80;;;0.80;;
4409;SDS011;2218;51.408;7.208;2023-05-10T00:20:23;0.73;;;0.70;;
4409;SDS011;2218;51.408;7.208;2023-05-10T00:22:52;0.87;;;0.87;;
4409;SDS011;2218;51.408;7.208;2023-05-10T00:25:19;0.70;;;0.67;;
4409;SDS011;2218;51.408;7.208;2023-05-10T00:27:46;0.80;;;0.80;;
4409;SDS011;2218;51.408;7.208;2023-05-10T00:30:13;0.90;;;0.77;;
4409;SDS011;2218;51.408;7.208;2023-05-10T00:32:40;0.77;;;0.73;;
4409;SDS011;2218;51.408;7.208;2023-05-10T00:35:08;0.80;;;0.70;;
4409;SDS011;2218;51.408;7.208;2023-05-10T00:37:35;0.70;;;0.50;;
4409;SDS011;2218;51.408;7.208;2023-05-10T00:40:04;0.70;;;0.60;;
4409;SDS011;2218;51.408;7.208;2023-05-10T00:42:33;0.70;;;0.67;;
4409;SDS011;2218;51.408;7.208;2023-05-10T00:45:00;0.70;;;0.70;;
4409;SDS011;2218;51.408;7.208;2023-05-10T00:47:27;0.87;;;0.87;;
4409;SDS011;2218;51.408;7.208;2023-05-10T00:49:55;0.70;;;0.67;;
4409;SDS011;2218;51.408;7.208;2023-05-10T00:52:22;0.83;;;0.70;;
4409;SDS011;2218;51.408;7.208;2023-05-10T00:54:49;0.70;;;0.70;;
4409;SDS011;2218;51.408;7.208;2023-05-10T00:57:19;0.70;;;0.60;;
4409;SDS011;2218;51.408;7.208;2023-05-10T00:59:47;0.70;;;0.50;;
4409;SDS011;2218;51.408;7.208;2023-05-10T01:02:14;0.90;;;0.80;;
4409;SDS011;2218;51.408;7.208;2023-05-10T01:04:42;0.70;;;0.60;;
4409;SDS011;2218;51.408;7.208;2023-05-10T01:07:09;0.70;;;0.60;;
4409;SDS011;2218;51.408;7.208;2023-05-10T01:09:37;0.70;;;0.70;;
4409;SDS011;2218;51.408;7.208;2023-05-10T01:12:04;0.70;;;0.60;;
4409;SDS011;2218;51.408;7.208;2023-05-10T01:14:34;0.80;;;0.60;;
4409;SDS011;2218;51.408;7.208;2023-05-10T01:17:02;0.70;;;0.70;;
4409;SDS011;2218;51.408;7.208;2023-05-10T01:19:31;0.80;;;0.70;;
4409;SDS011;2218;51.408;7.208;2023-05-10T01:22:05;0.70;;;0.63;;
4409;SDS011;2218;51.408;7.208;2023-05-10T01:28:07;0.80;;;0.80;;
4409;SDS011;2218;51.408;7.208;2023-05-10T01:31:16;0.70;;;0.60;;
4409;SDS011;2218;51.408;7.208;2023-05-10T01:33:59;0.80;;;0.70;;
4409;SDS011;2218;51.408;7.208;2023-05-10T01:36:35;0.70;;;0.60;;
4409;SDS011;2218;51.408;7.208;2023-05-10T01:39:13;0.80;;;0.77;;
4409;SDS011;2218;51.408;7.208;2023-05-10T01:41:51;0.80;;;0.70;;
4409;SDS011;2218;51.408;7.208;2023-05-10T01:44:29;0.70;;;0.60;;
4409;SDS011;2218;51.408;7.208;2023-05-10T01:47:05;0.70;;;0.60;;
4409;SDS011;2218;51.408;7.208;2023-05-10T01:49:41;0.80;;;0.60;;
4409;SDS011;2218;51.408;7.208;2023-05-10T01:52:14;0.70;;;0.60;;
4409;SDS011;2218;51.408;7.208;2023-05-10T01:54:48;0.70;;;0.70;;
4409;SDS011;2218;51.408;7.208;2023-05-10T01:57:20;0.70;;;0.60;;
4409;SDS011;2218;51.408;7.208;2023-05-10T01:59:53;0.80;;;0.80;;
4409;SDS011;2218;51.408;7.208;2023-05-10T02:02:22;0.80;;;0.70;;
4409;SDS011;2218;51.408;7.208;2023-05-10T02:04:53;0.70;;;0.70;;
4409;SDS011;2218;51.408;7.208;2023-05-10T02:07:23;0.77;;;0.60;;
4409;SDS011;2218;51.408;7.208;2023-05-10T02:09:52;0.80;;;0.80;;
4409;SDS011;2218;51.408;7.208;2023-05-10T02:12:21;0.70;;;0.60;;
4409;SDS011;2218;51.408;7.208;2023-05-10T02:14:52;0.90;;;0.90;;
4409;SDS011;2218;51.408;7.208;2023-05-10T02:17:21;0.80;;;0.77;;
4409;SDS011;2218;51.408;7.208;2023-05-10T02:19:50;0.70;;;0.63;;
4409;SDS011;2218;51.408;7.208;2023-05-10T02:22:22;0.90;;;0.80;;
4409;SDS011;2218;51.408;7.208;2023-05-10T02:24:51;0.80;;;0.80;;
4409;SDS011;2218;51.408;7.208;2023-05-10T02:27:21;0.70;;;0.60;;
4409;SDS011;2218;51.408;7.208;2023-05-10T02:29:50;0.70;;;0.60;;
4409;SDS011;2218;51.408;7.208;2023-05-10T02:32:18;0.70;;;0.60;;
4409;SDS011;2218;51.408;7.208;2023-05-10T02:34:49;0.77;;;0.70;;
4409;SDS011;2218;51.408;7.208;2023-05-10T02:37:18;0.70;;;0.60;;
4409;SDS011;2218;51.408;7.208;2023-05-10T02:39:47;0.70;;;0.70;;
4409;SDS011;2218;51.408;7.208;2023-05-10T02:42:16;0.70;;;0.60;;
4409;SDS011;2218;51.408;7.208;2023-05-10T02:44:48;0.70;;;0.70;;
4409;SDS011;2218;51.408;7.208;2023-05-10T02:47:20;0.80;;;0.70;;
4409;SDS011;2218;51.408;7.208;2023-05-10T02:49:47;0.70;;;0.60;;
4409;SDS011;2218;51.408;7.208;2023-05-10T02:52:15;0.80;;;0.60;;
4409;SDS011;2218;51.408;7.208;2023-05-10T02:55:05;0.70;;;0.60;;
4409;SDS011;2218;51.408;7.208;2023-05-10T02:57:38;1.00;;;0.80;;
4409;SDS011;2218;51.408;7.208;2023-05-10T03:00:11;0.70;;;0.70;;
4409;SDS011;2218;51.408;7.208;2023-05-10T03:02:39;0.70;;;0.60;;
4409;SDS011;2218;51.408;7.208;2023-05-10T03:05:06;0.70;;;0.50;;
4409;SDS011;2218;51.408;7.208;2023-05-10T03:07:35;1.00;;;0.70;;
4409;SDS011;2218;51.408;7.208;2023-05-10T03:10:03;0.80;;;0.77;;
4409;SDS011;2218;51.408;7.208;2023-05-10T03:12:39;0.80;;;0.67;;
4409;SDS011;2218;51.408;7.208;2023-05-10T03:15:22;0.80;;;0.60;;
4409;SDS011;2218;51.408;7.208;2023-05-10T03:18:04;0.70;;;0.70;;
4409;SDS011;2218;51.408;7.208;2023-05-10T03:20:39;0.70;;;0.70;;
4409;SDS011;2218;51.408;7.208;2023-05-10T03:23:13;0.70;;;0.60;;
4409;SDS011;2218;51.408;7.208;2023-05-10T03:25:49;0.70;;;0.60;;
4409;SDS011;2218;51.408;7.208;2023-05-10T03:28:18;0.70;;;0.50;;
4409;SDS011;2218;51.408;7.208;2023-05-10T03:30:46;0.70;;;0.63;;
4409;SDS011;2218;51.408;7.208;2023-05-10T03:33:15;0.63;;;0.50;;
4409;SDS011;2218;51.408;7.208;2023-05-10T03:35:44;0.80;;;0.70;;
4409;SDS011;2218;51.408;7.208;2023-05-10T03:38:13;0.70;;;0.60;;
4409;SDS011;2218;51.408;7.208;2023-05-10T03:40:40;0.70;;;0.60;;
4409;SDS011;2218;51.408;7.208;2023-05-10T03:43:08;0.70;;;0.53;;
4409;SDS011;2218;51.408;7.208;2023-05-10T03:45:34;0.70;;;0.70;;
4409;SDS011;2218;51.408;7.208;2023-05-10T03:48:02;0.70;;;0.63;;
4409;SDS011;2218;51.408;7.208;2023-05-10T03:50:29;0.70;;;0.70;;
4409;SDS011;2218;51.408;7.208;2023-05-10T03:52:56;0.70;;;0.60;;
4409;SDS011;2218;51.408;7.208;2023-05-10T03:55:24;0.70;;;0.50;;
4409;SDS011;2218;51.408;7.208;2023-05-10T03:57:51;0.97;;;0.70;;
4409;SDS011;2218;51.408;7.208;2023-05-10T04:00:20;0.70;;;0.70;;
4409;SDS011;2218;51.408;7.208;2023-05-10T04:02:50;0.70;;;0.60;;
4409;SDS011;2218;51.408;7.208;2023-05-10T04:05:18;0.80;;;0.60;;
4409;SDS011;2218;51.408;7.208;2023-05-10T04:07:45;0.70;;;0.50;;
4409;SDS011;2218;51.408;7.208;2023-05-10T04:10:14;0.70;;;0.50;;
4409;SDS011;2218;51.408;7.208;2023-05-10T04:12:44;0.70;;;0.70;;
4409;SDS011;2218;51.408;7.208;2023-05-10T04:15:11;0.70;;;0.60;;
4409;SDS011;2218;51.408;7.208;2023-05-10T04:17:37;0.70;;;0.57;;
4409;SDS011;2218;51.408;7.208;2023-05-10T04:20:05;0.70;;;0.60;;
4409;SDS011;2218;51.408;7.208;2023-05-10T04:22:33;0.70;;;0.60;;
4409;SDS011;2218;51.408;7.208;2023-05-10T04:25:00;1.07;;;0.70;;
4409;SDS011;2218;51.408;7.208;2023-05-10T04:27:27;0.80;;;0.70;;
4409;SDS011;2218;51.408;7.208;2023-05-10T04:29:55;0.90;;;0.90;;
4409;SDS011;2218;51.408;7.208;2023-05-10T04:32:22;0.70;;;0.60;;
4409;SDS011;2218;51.408;7.208;2023-05-10T04:34:50;0.80;;;0.70;;
4409;SDS011;2218;51.408;7.208;2023-05-10T04:37:16;0.70;;;0.70;;
4409;SDS011;2218;51.408;7.208;2023-05-10T04:39:44;1.30;;;0.80;;
4409;SDS011;2218;51.408;7.208;2023-05-10T04:42:11;0.70;;;0.70;;
4409;SDS011;2218;51.408;7.208;2023-05-10T04:44:39;0.70;;;0.60;;
4409;SDS011;2218;51.408;7.208;2023-05-10T04:47:08;0.80;;;0.73;;
4409;SDS011;2218;51.408;7.208;2023-05-10T04:49:36;1.03;;;0.80;;
4409;SDS011;2218;51.408;7.208;2023-05-10T04:52:03;0.87;;;0.83;;
4409;SDS011;2218;51.408;7.208;2023-05-10T04:54:30;0.80;;;0.80;;
4409;SDS011;2218;51.408;7.208;2023-05-10T04:56:57;0.80;;;0.80;;
4409;SDS011;2218;51.408;7.208;2023-05-10T04:59:24;0.80;;;0.73;;
4409;SDS011;2218;51.408;7.208;2023-05-10T05:01:51;0.70;;;0.70;;
4409;SDS011;2218;51.408;7.208;2023-05-10T05:04:19;0.70;;;0.60;;
4409;SDS011;2218;51.408;7.208;2023-05-10T05:06:48;0.87;;;0.80;;
4409;SDS011;2218;51.408;7.208;2023-05-10T05:09:15;0.80;;;0.70;;
4409;SDS011;2218;51.408;7.208;2023-05-10T05:11:42;0.80;;;0.60;;
4409;SDS011;2218;51.408;7.208;2023-05-10T05:14:09;0.70;;;0.70;;
4409;SDS011;2218;51.408;7.208;2023-05-10T05:16:36;0.73;;;0.73;;
4409;SDS011;2218;51.408;7.208;2023-05-10T05:19:03;0.90;;;0.90;;
4409;SDS011;2218;51.408;7.208;2023-05-10T05:21:31;0.97;;;0.87;;
4409;SDS011;2218;51.408;7.208;2023-05-10T05:23:58;0.70;;;0.60;;
4409;SDS011;2218;51.408;7.208;2023-05-10T05:26:26;1.60;;;0.90;;
4409;SDS011;2218;51.408;7.208;2023-05-10T05:28:53;0.70;;;0.70;;
4409;SDS011;2218;51.408;7.208;2023-05-10T05:31:20;0.70;;;0.70;;
4409;SDS011;2218;51.408;7.208;2023-05-10T05:33:47;0.80;;;0.70;;
4409;SDS011;2218;51.408;7.208;2023-05-10T05:36:14;0.73;;;0.60;;
4409;SDS011;2218;51.408;7.208;2023-05-10T05:38:42;0.70;;;0.60;;
4409;SDS011;2218;51.408;7.208;2023-05-10T05:41:10;0.70;;;0.60;;
4409;SDS011;2218;51.408;7.208;2023-05-10T05:43:37;0.70;;;0.60;;
4409;SDS011;2218;51.408;7.208;2023-05-10T05:46:04;0.70;;;0.63;;
4409;SDS011;2218;51.408;7.208;2023-05-10T05:48:31;0.80;;;0.70;;
4409;SDS011;2218;51.408;7.208;2023-05-10T05:50:58;0.80;;;0.70;;
4409;SDS011;2218;51.408;7.208;2023-05-10T05:53:25;0.80;;;0.70;;
4409;SDS011;2218;51.408;7.208;2023-05-10T05:55:53;0.70;;;0.60;;
4409;SDS011;2218;51.408;7.208;2023-05-10T05:58:22;0.77;;;0.60;;
4409;SDS011;2218;51.408;7.208;2023-05-10T06:00:50;0.70;;;0.70;;
4409;SDS011;2218;51.408;7.208;2023-05-10T06:03:18;0.70;;;0.70;;
4409;SDS011;2218;51.408;7.208;2023-05-10T06:05:45;0.80;;;0.73;;
4409;SDS011;2218;51.408;7.208;2023-05-10T06:08:13;0.70;;;0.60;;
4409;SDS011;2218;51.408;7.208;2023-05-10T06:10:40;0.70;;;0.70;;
4409;SDS011;2218;51.408;7.208;2023-05-10T06:13:09;0.90;;;0.80;;
4409;SDS011;2218;51.408;7.208;2023-05-10T06:15:36;0.80;;;0.80;;
4409;SDS011;2218;51.408;7.208;2023-05-10T06:18:03;0.80;;;0.73;;
4409;SDS011;2218;51.408;7.208;2023-05-10T06:20:30;1.10;;;0.63;;
4409;SDS011;2218;51.408;7.208;2023-05-10T06:22:57;0.80;;;0.73;;
4409;SDS011;2218;51.408;7.208;2023-05-10T06:25:24;0.70;;;0.60;;
4409;SDS011;2218;51.408;7.208;2023-05-10T06:27:51;0.80;;;0.73;;
4409;SDS011;2218;51.408;7.208;2023-05-10T06:30:24;12.27;;;8.60;;
4409;SDS011;2218;51.408;7.208;2023-05-10T06:32:53;9.57;;;8.53;;
4409;SDS011;2218;51.408;7.208;2023-05-10T06:35:20;10.73;;;8.00;;
4409;SDS011;2218;51.408;7.208;2023-05-10T06:37:47;14.30;;;10.23;;
4409;SDS011;2218;51.408;7.208;2023-05-10T06:40:15;15.83;;;9.87;;
4409;SDS011;2218;51.408;7.208;2023-05-10T06:42:43;18.47;;;12.17;;
4409;SDS011;2218;51.408;7.208;2023-05-10T06:45:11;14.13;;;9.50;;
4409;SDS011;2218;51.408;7.208;2023-05-10T06:47:40;16.10;;;10.10;;
4409;SDS011;2218;51.408;7.208;2023-05-10T06:50:08;17.50;;;12.20;;
4409;SDS011;2218;51.408;7.208;2023-05-10T06:52:36;17.27;;;10.47;;
4409;SDS011;2218;51.408;7.208;2023-05-10T06:55:04;11.03;;;8.20;;
4409;SDS011;2218;51.408;7.208;2023-05-10T06:57:32;9.53;;;6.40;;
4409;SDS011;2218;51.408;7.208;2023-05-10T06:59:59;7.63;;;5.53;;
4409;SDS011;2218;51.408;7.208;2023-05-10T07:02:26;5.90;;;5.27;;
4409;SDS011;2218;51.408;7.208;2023-05-10T07:04:55;8.83;;;5.60;;
4409;SDS011;2218;51.408;7.208;2023-05-10T07:07:22;6.70;;;5.17;;
4409;SDS011;2218;51.408;7.208;2023-05-10T07:09:49;5.60;;;5.10;;
4409;SDS011;2218;51.408;7.208;2023-05-10T07:12:16;6.53;;;5.00;;
4409;SDS011;2218;51.408;7.208;2023-05-10T07:14:44;6.37;;;5.33;;
4409;SDS011;2218;51.408;7.208;2023-05-10T07:17:12;5.07;;;4.57;;
4409;SDS011;2218;51.408;7.208;2023-05-10T07:19:38;5.90;;;5.30;;
4409;SDS011;2218;51.408;7.208;2023-05-10T07:22:07;6.90;;;4.60;;
4409;SDS011;2218;51.408;7.208;2023-05-10T07:24:34;6.87;;;5.00;;
4409;SDS011;2218;51.408;7.208;2023-05-10T07:27:01;4.73;;;4.40;;
4409;SDS011;2218;51.408;7.208;2023-05-10T07:29:30;5.80;;;4.90;;
4409;SDS011;2218;51.408;7.208;2023-05-10T07:31:57;6.07;;;4.97;;
4409;SDS011;2218;51.408;7.208;2023-05-10T07:34:24;5.43;;;4.80;;
4409;SDS011;2218;51.408;7.208;2023-05-10T07:36:53;4.90;;;4.47;;
4409;SDS011;2218;51.408;7.208;2023-05-10T07:39:23;5.17;;;4.67;;
4409;SDS011;2218;51.408;7.208;2023-05-10T07:41:52;4.70;;;4.23;;
4409;SDS011;2218;51.408;7.208;2023-05-10T07:44:22;5.10;;;4.40;;
4409;SDS011;2218;51.408;7.208;2023-05-10T07:46:49;5.10;;;4.70;;
4409;SDS011;2218;51.408;7.208;2023-05-10T07:49:17;4.50;;;4.10;;
4409;SDS011;2218;51.408;7.208;2023-05-10T07:51:44;4.30;;;4.00;;
4409;SDS011;2218;51.408;7.208;2023-05-10T07:54:13;5.20;;;4.57;;
4409;SDS011;2218;51.408;7.208;2023-05-10T07:56:42;4.50;;;4.10;;
4409;SDS011;2218;51.408;7.208;2023-05-10T07:59:14;6.53;;;4.00;;
4409;SDS011;2218;51.408;7.208;2023-05-10T08:01:43;4.10;;;3.80;;
4409;SDS011;2218;51.408;7.208;2023-05-10T08:04:11;5.57;;;5.07;;
4409;SDS011;2218;51.408;7.208;2023-05-10T08:06:38;4.70;;;4.07;;
4409;SDS011;2218;51.408;7.208;2023-05-10T08:09:06;4.33;;;3.73;;
4409;SDS011;2218;51.408;7.208;2023-05-10T08:11:33;4.33;;;3.80;;
4409;SDS011;2218;51.408;7.208;2023-05-10T08:14:01;5.13;;;3.70;;
4409;SDS011;2218;51.408;7.208;2023-05-10T08:16:28;6.43;;;3.87;;
4409;SDS011;2218;51.408;7.208;2023-05-10T08:18:55;4.00;;;3.70;;
4409;SDS011;2218;51.408;7.208;2023-05-10T08:21:22;5.17;;;4.00;;
4409;SDS011;2218;51.408;7.208;2023-05-10T08:23:49;3.90;;;3.60;;
4409;SDS011;2218;51.408;7.208;2023-05-10T08:26:16;3.40;;;3.20;;
4409;SDS011;2218;51.408;7.208;2023-05-10T08:28:43;3.90;;;3.50;;
4409;SDS011;2218;51.408;7.208;2023-05-10T08:31:12;4.13;;;3.53;;
4409;SDS011;2218;51.408;7.208;2023-05-10T08:33:39;3.43;;;3.20;;
4409;SDS011;2218;51.408;7.208;2023-05-10T08:36:08;3.17;;;2.97;;
4409;SDS011;2218;51.408;7.208;2023-05-10T08:38:39;4.00;;;3.60;;
4409;SDS011;2218;51.408;7.208;2023-05-10T08:41:06;4.00;;;3.70;;
4409;SDS011;2218;51.408;7.208;2023-05-10T08:43:33;7.97;;;3.70;;
4409;SDS011;2218;51.408;7.208;2023-05-10T08:46:03;5.83;;;3.27;;
4409;SDS011;2218;51.408;7.208;2023-05-10T08:48:35;4.10;;;3.27;;
4409;SDS011;2218;51.408;7.208;2023-05-10T08:51:04;5.70;;;3.40;;
4409;SDS011;2218;51.408;7.208;2023-05-10T08:53:33;4.00;;;3.70;;
4409;SDS011;2218;51.408;7.208;2023-05-10T08:56:03;5.47;;;4.97;;
4409;SDS011;2218;51.408;7.208;2023-05-10T08:58:31;4.43;;;4.03;;
4409;SDS011;2218;51.408;7.208;2023-05-10T09:00:59;8.13;;;3.77;;
4409;SDS011;2218;51.408;7.208;2023-05-10T09:03:27;3.43;;;3.23;;
4409;SDS011;2218;51.408;7.208;2023-05-10T09:05:55;4.53;;;3.97;;
4409;SDS011;2218;51.408;7.208;2023-05-10T09:08:23;4.10;;;3.70;;
4409;SDS011;2218;51.408;7.208;2023-05-10T09:10:51;8.80;;;3.70;;
4409;SDS011;2218;51.408;7.208;2023-05-10T09:13:19;3.70;;;3.40;;
4409;SDS011;2218;51.408;7.208;2023-05-10T09:15:48;4.87;;;3.93;;
4409;SDS011;2218;51.408;7.208;2023-05-10T09:18:16;3.90;;;3.60;;
4409;SDS011;2218;51.408;7.208;2023-05-10T09:20:43;4.40;;;4.10;;
4409;SDS011;2218;51.408;7.208;2023-05-10T09:23:11;4.27;;;3.60;;
4409;SDS011;2218;51.408;7.208;2023-05-10T09:25:38;3.70;;;3.33;;
4409;SDS011;2218;51.408;7.208;2023-05-10T09:28:08;3.07;;;2.87;;
4409;SDS011;2218;51.408;7.208;2023-05-10T09:30:36;3.27;;;3.07;;
4409;SDS011;2218;51.408;7.208;2023-05-10T09:33:03;7.17;;;3.40;;
4409;SDS011;2218;51.408;7.208;2023-05-10T09:35:30;4.17;;;2.80;;
4409;SDS011;2218;51.408;7.208;2023-05-10T09:38:00;2.93;;;2.73;;
4409;SDS011;2218;51.408;7.208;2023-05-10T09:40:31;2.87;;;2.70;;
4409;SDS011;2218;51.408;7.208;2023-05-10T09:42:58;2.77;;;2.57;;
4409;SDS011;2218;51.408;7.208;2023-05-10T09:45:28;4.80;;;2.27;;
4409;SDS011;2218;51.408;7.208;2023-05-10T09:47:57;3.73;;;2.80;;
4409;SDS011;2218;51.408;7.208;2023-05-10T09:50:27;3.07;;;2.80;;
4409;SDS011;2218;51.408;7.208;2023-05-10T09:52:55;2.23;;;2.13;;
4409;SDS011;2218;51.408;7.208;2023-05-10T09:55:25;2.43;;;2.30;;
4409;SDS011;2218;51.408;7.208;2023-05-10T09:58:06;2.43;;;2.33;;
4409;SDS011;2218;51.408;7.208;2023-05-10T10:00:35;2.80;;;2.30;;
4409;SDS011;2218;51.408;7.208;2023-05-10T10:03:04;3.00;;;1.90;;
4409;SDS011;2218;51.408;7.208;2023-05-10T10:05:38;2.30;;;2.10;;
4409;SDS011;2218;51.408;7.208;2023-05-10T10:08:07;2.13;;;2.03;;
4409;SDS011;2218;51.408;7.208;2023-05-10T10:10:34;2.37;;;2.27;;
4409;SDS011;2218;51.408;7.208;2023-05-10T10:13:03;2.10;;;2.00;;
4409;SDS011;2218;51.408;7.208;2023-05-10T10:15:30;1.90;;;1.80;;
4409;SDS011;2218;51.408;7.208;2023-05-10T10:18:00;2.40;;;2.30;;
4409;SDS011;2218;51.408;7.208;2023-05-10T10:20:28;2.10;;;2.00;;
4409;SDS011;2218;51.408;7.208;2023-05-10T10:22:55;2.40;;;2.20;;
4409;SDS011;2218;51.408;7.208;2023-05-10T10:25:22;2.27;;;2.07;;
4409;SDS011;2218;51.408;7.208;2023-05-10T10:27:56;2.07;;;1.97;;
4409;SDS011;2218;51.408;7.208;2023-05-10T10:30:39;2.90;;;1.83;;
4409;SDS011;2218;51.408;7.208;2023-05-10T10:36:06;2.73;;;2.53;;
4409;SDS011;2218;51.408;7.208;2023-05-10T10:38:37;2.40;;;2.20;;
4409;SDS011;2218;51.408;7.208;2023-05-10T10:41:28;2.20;;;2.00;;
4409;SDS011;2218;51.408;7.208;2023-05-10T10:47:00;2.87;;;2.67;;
4409;SDS011;2218;51.408;7.208;2023-05-10T10:49:31;2.50;;;2.40;;
4409;SDS011;2218;51.408;7.208;2023-05-10T10:54:56;2.70;;;2.50;;
4409;SDS011;2218;51.408;7.208;2023-05-10T10:57:26;2.33;;;2.13;;
4409;SDS011;2218;51.408;7.208;2023-05-10T11:02:53;2.67;;;2.47;;
4409;SDS011;2218;51.408;7.208;2023-05-10T11:08:13;2.70;;;2.50;;
4409;SDS011;2218;51.408;7.208;2023-05-10T11:10:51;3.30;;;3.00;;
4409;SDS011;2218;51.408;7.208;2023-05-10T11:13:32;2.43;;;2.17;;
4409;SDS011;2218;51.408;7.208;2023-05-10T11:16:15;2.93;;;2.73;;
4409;SDS011;2218;51.408;7.208;2023-05-10T11:18:54;2.97;;;2.77;;
4409;SDS011;2218;51.408;7.208;2023-05-10T11:21:27;2.80;;;2.60;;
4409;SDS011;2218;51.408;7.208;2023-05-10T11:23:55;4.23;;;2.60;;
4409;SDS011;2218;51.408;7.208;2023-05-10T11:26:24;2.60;;;2.40;;
4409;SDS011;2218;51.408;7.208;2023-05-10T11:28:56;2.70;;;2.50;;
4409;SDS011;2218;51.408;7.208;2023-05-10T11:31:25;2.90;;;2.70;;
4409;SDS011;2218;51.408;7.208;2023-05-10T11:33:53;2.47;;;2.27;;
4409;SDS011;2218;51.408;7.208;2023-05-10T11:36:23;3.13;;;2.93;;
4409;SDS011;2218;51.408;7.208;2023-05-10T11:38:52;2.33;;;2.23;;
4409;SDS011;2218;51.408;7.208;2023-05-10T11:41:21;5.13;;;2.57;;
4409;SDS011;2218;51.408;7.208;2023-05-10T11:43:49;5.80;;;3.27;;
4409;SDS011;2218;51.408;7.208;2023-05-10T11:46:19;2.63;;;2.43;;
4409;SDS011;2218;51.408;7.208;2023-05-10T11:48:50;2.50;;;1.97;;
4409;SDS011;2218;51.408;7.208;2023-05-10T11:51:19;2.60;;;2.40;;
4409;SDS011;2218;51.408;7.208;2023-05-10T11:53:49;2.83;;;2.63;;
4409;SDS011;2218;51.408;7.208;2023-05-10T11:56:16;2.27;;;2.13;;
4409;SDS011;2218;51.408;7.208;2023-05-10T11:58:43;2.50;;;2.30;;
4409;SDS011;2218;51.408;7.208;2023-05-10T12:01:12;2.90;;;2.40;;
4409;SDS011;2218;51.408;7.208;2023-05-10T12:03:39;2.70;;;2.50;;
4409;SDS011;2218;51.408;7.208;2023-05-10T12:06:08;2.27;;;2.10;;
4409;SDS011;2218;51.408;7.208;2023-05-10T12:08:35;2.40;;;1.80;;
4409;SDS011;2218;51.408;7.208;2023-05-10T12:11:05;4.00;;;2.60;;
4409;SDS011;2218;51.408;7.208;2023-05-10T12:13:37;2.77;;;2.57;;
4409;SDS011;2218;51.408;7.208;2023-05-10T12:16:13;2.77;;;2.57;;
4409;SDS011;2218;51.408;7.208;2023-05-10T12:18:48;4.30;;;2.60;;
4409;SDS011;2218;51.408;7.208;2023-05-10T12:21:17;2.87;;;2.60;;
4409;SDS011;2218;51.408;7.208;2023-05-10T12:23:46;2.60;;;2.40;;
4409;SDS011;2218;51.408;7.208;2023-05-10T12:26:15;2.60;;;2.50;;
4409;SDS011;2218;51.408;7.208;2023-05-10T12:28:43;2.60;;;2.20;;
4409;SDS011;2218;51.408;7.208;2023-05-10T12:31:10;2.40;;;2.20;;
4409;SDS011;2218;51.408;7.208;2023-05-10T12:33:37;2.73;;;2.53;;
4409;SDS011;2218;51.408;7.208;2023-05-10T12:36:07;2.47;;;2.27;;
4409;SDS011;2218;51.408;7.208;2023-05-10T12:38:37;2.67;;;2.47;;
4409;SDS011;2218;51.408;7.208;2023-05-10T12:41:08;2.60;;;2.40;;
4409;SDS011;2218;51.408;7.208;2023-05-10T12:43:37;4.03;;;2.27;;
4409;SDS011;2218;51.408;7.208;2023-05-10T12:46:06;2.10;;;2.00;;
4409;SDS011;2218;51.408;7.208;2023-05-10T12:48:35;2.30;;;2.20;;
4409;SDS011;2218;51.408;7.208;2023-05-10T12:51:03;2.60;;;2.40;;
4409;SDS011;2218;51.408;7.208;2023-05-10T12:53:34;3.57;;;2.23;;
4409;SDS011;2218;51.408;7.208;2023-05-10T12:56:02;2.20;;;2.00;;
4409;SDS011;2218;51.408;7.208;2023-05-10T12:58:30;3.30;;;1.77;;
4409;SDS011;2218;51.408;7.208;2023-05-10T13:00:57;6.00;;;2.50;;
4409;SDS011;2218;51.408;7.208;2023-05-10T13:03:25;2.50;;;2.30;;
4409;SDS011;2218;51.408;7.208;2023-05-10T13:05:52;2.10;;;1.90;;
4409;SDS011;2218;51.408;7.208;2023-05-10T13:08:19;2.50;;;2.30;;
4409;SDS011;2218;51.408;7.208;2023-05-10T13:10:47;3.30;;;2.50;;
4409;SDS011;2218;51.408;7.208;2023-05-10T13:13:14;2.07;;;1.97;;
4409;SDS011;2218;51.408;7.208;2023-05-10T13:15:43;2.13;;;2.03;;
4409;SDS011;2218;51.408;7.208;2023-05-10T13:18:10;2.00;;;1.90;;
4409;SDS011;2218;51.408;7.208;2023-05-10T13:20:37;4.77;;;1.97;;
4409;SDS011;2218;51.408;7.208;2023-05-10T13:23:05;3.07;;;2.00;;
4409;SDS011;2218;51.408;7.208;2023-05-10T13:25:35;3.37;;;2.67;;
4409;SDS011;2218;51.408;7.208;2023-05-10T13:28:03;2.20;;;2.10;;
4409;SDS011;2218;51.408;7.208;2023-05-10T13:30:30;2.17;;;2.07;;
4409;SDS011;2218;51.408;7.208;2023-05-10T13:32:57;2.10;;;2.00;;
4409;SDS011;2218;51.408;7.208;2023-05-10T13:35:25;2.00;;;1.90;;
4409;SDS011;2218;51.408;7.208;2023-05-10T13:37:52;2.77;;;2.07;;
4409;SDS011;2218;51.408;7.208;2023-05-10T13:40:21;2.13;;;1.80;;
4409;SDS011;2218;51.408;7.208;2023-05-10T13:42:48;1.80;;;1.70;;
4409;SDS011;2218;51.408;7.208;2023-05-10T13:45:17;1.87;;;1.77;;
4409;SDS011;2218;51.408;7.208;2023-05-10T13:47:44;2.00;;;1.90;;
4409;SDS011;2218;51.408;7.208;2023-05-10T13:50:11;2.07;;;1.97;;
4409;SDS011;2218;51.408;7.208;2023-05-10T13:52:38;2.10;;;1.90;;
4409;SDS011;2218;51.408;7.208;2023-05-10T13:55:05;1.60;;;1.50;;
4409;SDS011;2218;51.408;7.208;2023-05-10T13:57:33;1.60;;;1.47;;
4409;SDS011;2218;51.408;7.208;2023-05-10T14:00:01;2.10;;;2.00;;
4409;SDS011;2218;51.408;7.208;2023-05-10T14:02:34;1.73;;;1.63;;
4409;SDS011;2218;51.408;7.208;2023-05-10T14:05:01;2.30;;;2.10;;
4409;SDS011;2218;51.408;7.208;2023-05-10T14:07:28;1.67;;;1.57;;
4409;SDS011;2218;51.408;7.208;2023-05-10T14:09:55;6.00;;;1.83;;
4409;SDS011;2218;51.408;7.208;2023-05-10T14:12:22;2.20;;;2.00;;
4409;SDS011;2218;51.408;7.208;2023-05-10T14:14:49;2.00;;;1.90;;
4409;SDS011;2218;51.408;7.208;2023-05-10T14:17:17;3.27;;;1.90;;
4409;SDS011;2218;51.408;7.208;2023-05-10T14:19:45;1.50;;;1.40;;
4409;SDS011;2218;51.408;7.208;2023-05-10T14:22:12;1.57;;;1.40;;
4409;SDS011;2218;51.408;7.208;2023-05-10T14:24:39;2.70;;;1.50;;
4409;SDS011;2218;51.408;7.208;2023-05-10T14:27:06;1.80;;;1.67;;
4409;SDS011;2218;51.408;7.208;2023-05-10T14:29:33;2.40;;;1.80;;
4409;SDS011;2218;51.408;7.208;2023-05-10T14:32:00;2.00;;;1.90;;
4409;SDS011;2218;51.408;7.208;2023-05-10T14:34:27;3.37;;;1.77;;
4409;SDS011;2218;51.408;7.208;2023-05-10T14:36:56;1.60;;;1.50;;
4409;SDS011;2218;51.408;7.208;2023-05-10T14:39:23;2.27;;;1.67;;
4409;SDS011;2218;51.408;7.208;2023-05-10T14:41:50;6.00;;;1.37;;
4409;SDS011;2218;51.408;7.208;2023-05-10T14:44:17;2.50;;;1.40;;
4409;SDS011;2218;51.408;7.208;2023-05-10T14:46:44;2.10;;;1.70;;
4409;SDS011;2218;51.408;7.208;2023-05-10T14:49:12;1.90;;;1.47;;
4409;SDS011;2218;51.408;7.208;2023-05-10T14:51:39;1.70;;;1.60;;
4409;SDS011;2218;51.408;7.208;2023-05-10T14:54:07;1.40;;;1.30;;
4409;SDS011;2218;51.408;7.208;2023-05-10T14:56:34;1.60;;;1.50;;
4409;SDS011;2218;51.408;7.208;2023-05-10T14:59:02;1.40;;;1.30;;
4409;SDS011;2218;51.408;7.208;2023-05-10T15:01:29;1.70;;;1.60;;
4409;SDS011;2218;51.408;7.208;2023-05-10T15:03:57;1.80;;;1.70;;
4409;SDS011;2218;51.408;7.208;2023-05-10T15:06:30;1.50;;;1.40;;
4409;SDS011;2218;51.408;7.208;2023-05-10T15:08:58;2.40;;;1.33;;
4409;SDS011;2218;51.408;7.208;2023-05-10T15:11:27;1.67;;;1.57;;
4409;SDS011;2218;51.408;7.208;2023-05-10T15:13:55;1.50;;;1.40;;
4409;SDS011;2218;51.408;7.208;2023-05-10T15:16:22;1.30;;;1.20;;
4409;SDS011;2218;51.408;7.208;2023-05-10T15:18:49;1.43;;;1.33;;
4409;SDS011;2218;51.408;7.208;2023-05-10T15:21:16;2.00;;;1.80;;
4409;SDS011;2218;51.408;7.208;2023-05-10T15:23:43;1.97;;;1.50;;
4409;SDS011;2218;51.408;7.208;2023-05-10T15:26:10;1.23;;;1.20;;
4409;SDS011;2218;51.408;7.208;2023-05-10T15:28:38;1.27;;;1.17;;
4409;SDS011;2218;51.408;7.208;2023-05-10T15:31:05;1.60;;;1.50;;
4409;SDS011;2218;51.408;7.208;2023-05-10T15:33:31;1.50;;;1.40;;
4409;SDS011;2218;51.408;7.208;2023-05-10T15:35:58;1.80;;;1.40;;
4409;SDS011;2218;51.408;7.208;2023-05-10T15:38:26;1.20;;;1.10;;
4409;SDS011;2218;51.408;7.208;2023-05-10T15:40:55;1.43;;;1.33;;
4409;SDS011;2218;51.408;7.208;2023-05-10T15:43:23;1.87;;;1.67;;